Time;durP1;ratioP1;P1;durP2;ratioP2;P2;SDS_P1;SDS_P2;PMS_P1;PMS_P2;Temp;Humidity;BMP_temperature;BMP_pressure;BME280_temperature;BME280_humidity;BME280_pressure;Samples;Min_cycle;Max_cycle;Signal;HPM_P1;HPM_P2
2023/09/01 00:00:34;;;;;;;11.50;6.77;;;;;14.00;100692.00;;;;5017901;28;20232;-72
2023/09/01 00:03:21;;;;;;;14.23;7.97;;;;;14.00;100694.00;;;;5023109;28;20770;-71
2023/09/01 00:06:14;;;;;;;10.47;6.97;;;;;14.00;100701.00;;;;5021182;28;20227;-71
2023/09/01 00:09:00;;;;;;;10.73;6.40;;;;;13.90;100698.00;;;;5019373;28;20262;-71
2023/09/01 00:11:46;;;;;;;8.97;5.83;;;;;13.90;100696.00;;;;5015262;28;20360;-72
2023/09/01 00:14:32;;;;;;;11.53;6.03;;;;;13.90;100699.00;;;;5022209;28;20280;-72
2023/09/01 00:17:19;;;;;;;8.97;6.23;;;;;13.90;100694.00;;;;5012759;28;20228;-73
2023/09/01 00:20:07;;;;;;;9.23;6.20;;;;;13.90;100701.00;;;;5019316;28;20369;-72
2023/09/01 00:22:55;;;;;;;8.20;6.13;;;;;13.90;100704.00;;;;5021464;28;20353;-70
2023/09/01 00:25:41;;;;;;;12.13;5.43;;;;;13.80;100708.00;;;;5011858;28;20787;-72
2023/09/01 00:28:28;;;;;;;10.33;6.03;;;;;13.80;100702.00;;;;5018173;28;20835;-71
2023/09/01 00:31:17;;;;;;;10.57;6.27;;;;;13.80;100709.00;;;;5012070;28;20326;-71
2023/09/01 00:34:05;;;;;;;9.73;6.07;;;;;13.80;100708.00;;;;5019241;28;20233;-71
2023/09/01 00:36:51;;;;;;;9.17;6.00;;;;;13.80;100705.00;;;;5021833;28;20341;-72
2023/09/01 00:39:39;;;;;;;10.23;6.07;;;;;13.80;100703.00;;;;5011019;28;20724;-71
2023/09/01 00:42:25;;;;;;;11.13;6.30;;;;;13.80;100702.00;;;;5013243;28;20261;-71
2023/09/01 00:45:12;;;;;;;7.63;5.60;;;;;13.70;100697.00;;;;5020265;28;20344;-72
2023/09/01 00:47:58;;;;;;;10.07;5.93;;;;;13.70;100695.00;;;;5019937;28;20627;-71
2023/09/01 00:50:48;;;;;;;10.10;6.23;;;;;13.70;100702.00;;;;5023884;28;20344;-71
2023/09/01 00:53:35;;;;;;;12.60;6.17;;;;;13.70;100691.00;;;;5022078;28;20270;-70
2023/09/01 00:56:23;;;;;;;12.40;6.10;;;;;13.60;100692.00;;;;5020882;28;20778;-71
2023/09/01 00:59:09;;;;;;;11.50;6.73;;;;;13.60;100690.00;;;;5020437;28;20260;-71
2023/09/01 01:02:04;;;;;;;10.07;6.27;;;;;13.50;100673.00;;;;5012860;28;20369;-71
2023/09/01 01:04:50;;;;;;;11.47;6.47;;;;;13.50;100671.00;;;;5013031;28;20226;-72
2023/09/01 01:07:51;;;;;;;10.43;6.93;;;;;13.40;100679.00;;;;5018426;28;20273;-72
2023/09/01 01:10:43;;;;;;;9.63;5.93;;;;;13.40;100677.00;;;;5017376;28;20825;-70
2023/09/01 01:13:35;;;;;;;9.83;6.23;;;;;13.30;100692.00;;;;5017295;28;20249;-73
2023/09/01 01:16:24;;;;;;;11.87;6.20;;;;;13.30;100690.00;;;;5012402;28;20230;-72
2023/09/01 01:19:22;;;;;;;11.23;6.23;;;;;13.30;100695.00;;;;5019349;28;20915;-72
2023/09/01 01:22:10;;;;;;;7.97;6.07;;;;;13.20;100685.00;;;;5006873;28;20761;-74
2023/09/01 01:24:58;;;;;;;12.33;6.40;;;;;13.20;100687.00;;;;5020164;28;20235;-73
2023/09/01 01:27:45;;;;;;;10.80;7.03;;;;;13.20;100681.00;;;;5018682;28;20234;-72
2023/09/01 01:30:31;;;;;;;9.93;6.80;;;;;13.10;100677.00;;;;5016238;28;20857;-71
2023/09/01 01:33:30;;;;;;;9.77;6.33;;;;;13.10;100679.00;;;;5014967;28;20256;-73
2023/09/01 01:36:24;;;;;;;12.27;6.80;;;;;13.10;100680.00;;;;5019529;28;20751;-71
2023/09/01 01:39:16;;;;;;;11.93;6.57;;;;;13.00;100673.00;;;;5020855;28;20232;-72
2023/09/01 01:42:08;;;;;;;9.37;6.40;;;;;13.00;100677.00;;;;5014594;28;20233;-72
2023/09/01 01:44:57;;;;;;;10.10;6.50;;;;;13.00;100677.00;;;;5013748;28;20225;-73
2023/09/01 01:47:44;;;;;;;12.63;6.37;;;;;13.00;100684.00;;;;5016692;28;20311;-72
2023/09/01 01:50:32;;;;;;;11.83;6.60;;;;;12.90;100682.00;;;;5011986;28;20229;-74
2023/09/01 01:53:19;;;;;;;8.83;6.70;;;;;12.90;100678.00;;;;5022870;28;20711;-72
2023/09/01 01:56:07;;;;;;;9.33;6.07;;;;;12.90;100670.00;;;;5018654;28;20254;-72
2023/09/01 01:58:54;;;;;;;9.87;5.97;;;;;12.80;100672.00;;;;5012641;28;20230;-71
2023/09/01 02:01:41;;;;;;;14.03;6.50;;;;;12.80;100668.00;;;;5019565;28;20694;-73
2023/09/01 02:04:27;;;;;;;10.23;6.73;;;;;12.80;100676.00;;;;5019505;28;20226;-72
2023/09/01 02:07:13;;;;;;;13.93;6.17;;;;;12.80;100667.00;;;;5015909;28;20221;-72
2023/09/01 02:10:00;;;;;;;8.10;6.30;;;;;12.80;100677.00;;;;5015581;28;20274;-72
2023/09/01 02:12:47;;;;;;;13.73;6.87;;;;;12.80;100679.00;;;;5020411;28;20249;-72
2023/09/01 02:15:34;;;;;;;9.93;6.60;;;;;12.80;100681.00;;;;5018505;28;20229;-72
2023/09/01 02:18:21;;;;;;;12.10;6.67;;;;;12.80;100675.00;;;;5011757;28;20237;-73
2023/09/01 02:21:08;;;;;;;13.20;7.27;;;;;12.80;100667.00;;;;5015273;28;20738;-73
2023/09/01 02:23:55;;;;;;;11.07;6.70;;;;;12.80;100657.00;;;;5022880;28;20370;-72
2023/09/01 02:26:41;;;;;;;10.27;6.67;;;;;12.70;100667.00;;;;5016653;28;20229;-72
2023/09/01 02:29:27;;;;;;;13.00;6.77;;;;;12.70;100673.00;;;;5014099;28;20870;-71
2023/09/01 02:32:15;;;;;;;10.27;6.70;;;;;12.70;100683.00;;;;5018686;28;20229;-72
2023/09/01 02:35:05;;;;;;;13.00;6.87;;;;;12.70;100683.00;;;;5021687;28;20283;-72
2023/09/01 02:37:52;;;;;;;12.27;7.03;;;;;12.70;100694.00;;;;5022712;28;20631;-72
2023/09/01 02:40:40;;;;;;;10.73;6.60;;;;;12.70;100691.00;;;;5018084;28;20833;-70
2023/09/01 02:43:26;;;;;;;10.47;6.20;;;;;12.60;100699.00;;;;5020767;28;20233;-72
2023/09/01 02:46:15;;;;;;;10.63;6.63;;;;;12.60;100696.00;;;;5018022;28;20614;-71
2023/09/01 02:49:03;;;;;;;13.27;6.73;;;;;12.60;100688.00;;;;5025124;28;20253;-73
2023/09/01 02:51:50;;;;;;;9.57;6.47;;;;;12.50;100691.00;;;;5023604;28;20226;-72
2023/09/01 02:54:36;;;;;;;9.33;6.30;;;;;12.50;100686.00;;;;5025924;28;20229;-72
2023/09/01 02:57:23;;;;;;;11.20;6.50;;;;;12.50;100691.00;;;;5021602;28;20246;-72
2023/09/01 03:00:18;;;;;;;10.40;6.60;;;;;12.50;100689.00;;;;5022551;28;20253;-71
2023/09/01 03:03:06;;;;;;;12.40;6.97;;;;;12.40;100694.00;;;;5018467;28;20251;-71
2023/09/01 03:05:53;;;;;;;12.27;6.70;;;;;12.40;100696.00;;;;5022331;28;20225;-73
2023/09/01 03:08:40;;;;;;;13.93;6.40;;;;;12.40;100696.00;;;;5010150;28;20228;-73
2023/09/01 03:11:26;;;;;;;12.97;6.47;;;;;12.40;100695.00;;;;5017582;28;20272;-71
2023/09/01 03:14:12;;;;;;;12.23;6.73;;;;;12.30;100694.00;;;;5022273;28;20230;-72
2023/09/01 03:16:58;;;;;;;15.80;7.00;;;;;12.30;100689.00;;;;5013461;28;20249;-73
2023/09/01 03:19:46;;;;;;;13.23;6.40;;;;;12.20;100687.00;;;;5023344;28;20350;-71
2023/09/01 03:22:34;;;;;;;11.63;7.17;;;;;12.20;100686.00;;;;5012649;28;20238;-71
2023/09/01 03:25:20;;;;;;;9.33;6.77;;;;;12.20;100690.00;;;;5016104;28;20298;-71
2023/09/01 03:28:07;;;;;;;11.03;7.10;;;;;12.20;100686.00;;;;5022670;28;20319;-72
2023/09/01 03:30:53;;;;;;;10.83;6.77;;;;;12.20;100673.00;;;;5018061;28;20241;-73
2023/09/01 03:33:40;;;;;;;10.50;6.87;;;;;12.20;100677.00;;;;5018684;28;20698;-72
2023/09/01 03:36:26;;;;;;;10.40;6.60;;;;;12.20;100683.00;;;;5016817;28;20230;-71
2023/09/01 03:39:15;;;;;;;12.90;6.73;;;;;12.20;100681.00;;;;5006641;28;20236;-72
2023/09/01 03:42:01;;;;;;;11.23;6.57;;;;;12.10;100675.00;;;;5014070;28;20230;-73
2023/09/01 03:44:48;;;;;;;9.80;6.90;;;;;12.20;100687.00;;;;5011865;28;20249;-71
2023/09/01 03:47:34;;;;;;;13.00;6.90;;;;;12.20;100686.00;;;;5004531;28;20269;-69
2023/09/01 03:50:21;;;;;;;11.40;6.57;;;;;12.20;100672.00;;;;5012606;28;20791;-72
2023/09/01 03:53:07;;;;;;;12.70;7.00;;;;;12.20;100669.00;;;;5016770;28;20327;-72
2023/09/01 03:55:55;;;;;;;11.00;7.03;;;;;12.20;100681.00;;;;5017062;28;20241;-72
2023/09/01 03:58:41;;;;;;;12.53;6.93;;;;;12.20;100682.00;;;;5017256;28;20745;-73
2023/09/01 04:01:28;;;;;;;10.73;7.47;;;;;12.20;100683.00;;;;5017732;28;20245;-73
2023/09/01 04:04:15;;;;;;;10.37;7.23;;;;;12.20;100677.00;;;;5018531;28;20238;-72
2023/09/01 04:07:02;;;;;;;14.73;7.57;;;;;12.20;100680.00;;;;5015839;28;20229;-73
2023/09/01 04:09:49;;;;;;;13.50;7.33;;;;;12.30;100673.00;;;;5020598;28;20416;-72
2023/09/01 04:12:37;;;;;;;12.57;7.30;;;;;12.30;100676.00;;;;5015134;28;20291;-72
2023/09/01 04:15:23;;;;;;;12.73;7.40;;;;;12.30;100673.00;;;;5022167;28;20319;-70
2023/09/01 04:18:09;;;;;;;10.67;8.03;;;;;12.30;100664.00;;;;5015195;28;20234;-72
2023/09/01 04:20:56;;;;;;;11.83;7.33;;;;;12.30;100667.00;;;;5020189;28;20236;-72
2023/09/01 04:23:42;;;;;;;14.47;7.43;;;;;12.30;100671.00;;;;5016200;28;20225;-71
2023/09/01 04:26:29;;;;;;;11.67;7.17;;;;;12.30;100665.00;;;;5019700;28;20709;-74
2023/09/01 04:29:17;;;;;;;11.17;7.47;;;;;12.30;100665.00;;;;5017248;28;20229;-74
2023/09/01 04:32:05;;;;;;;14.10;7.67;;;;;12.30;100663.00;;;;5017257;28;20230;-73
2023/09/01 04:34:51;;;;;;;9.90;7.20;;;;;12.40;100666.00;;;;5019175;28;20234;-72
2023/09/01 04:37:37;;;;;;;11.67;7.13;;;;;12.40;100670.00;;;;5018081;28;20242;-72
2023/09/01 04:40:24;;;;;;;11.53;7.87;;;;;12.40;100674.00;;;;5014395;28;20642;-70
2023/09/01 04:43:10;;;;;;;11.77;7.90;;;;;12.50;100666.00;;;;5020194;28;20312;-71
2023/09/01 04:45:58;;;;;;;11.87;7.73;;;;;12.50;100661.00;;;;5019016;28;20229;-72
2023/09/01 04:48:45;;;;;;;12.67;7.63;;;;;12.50;100672.00;;;;5015640;28;20232;-71
2023/09/01 04:51:31;;;;;;;12.93;7.90;;;;;12.50;100673.00;;;;5020561;28;20715;-72
2023/09/01 04:54:17;;;;;;;11.43;8.03;;;;;12.60;100670.00;;;;5016642;28;20261;-72
2023/09/01 04:57:04;;;;;;;13.70;8.10;;;;;12.60;100673.00;;;;5017061;28;20630;-73
2023/09/01 04:59:51;;;;;;;11.57;8.23;;;;;12.70;100670.00;;;;5022094;28;20242;-72
2023/09/01 05:02:39;;;;;;;15.03;8.83;;;;;12.70;100676.00;;;;5017198;28;20550;-74
2023/09/01 05:05:25;;;;;;;11.93;8.50;;;;;12.80;100673.00;;;;5013382;28;20229;-72
2023/09/01 05:08:11;;;;;;;14.43;9.03;;;;;12.90;100662.00;;;;5021934;28;20233;-73
2023/09/01 05:10:58;;;;;;;13.63;8.83;;;;;12.90;100662.00;;;;5015417;28;20275;-72
2023/09/01 05:13:44;;;;;;;15.13;8.60;;;;;13.00;100654.00;;;;5020430;28;20241;-73
2023/09/01 05:16:31;;;;;;;13.63;8.67;;;;;13.00;100653.00;;;;5018136;28;20225;-72
2023/09/01 05:19:18;;;;;;;15.60;9.47;;;;;13.00;100659.00;;;;5023337;28;20233;-72
2023/09/01 05:22:05;;;;;;;13.87;9.33;;;;;13.10;100659.00;;;;5019734;28;20238;-72
2023/09/01 05:24:53;;;;;;;15.10;9.97;;;;;13.20;100659.00;;;;5015462;28;20363;-73
2023/09/01 05:27:39;;;;;;;21.33;10.93;;;;;13.20;100666.00;;;;5016733;28;20233;-73
2023/09/01 05:30:26;;;;;;;15.83;10.50;;;;;13.30;100665.00;;;;5013774;28;20851;-73
2023/09/01 05:33:12;;;;;;;23.67;10.50;;;;;13.40;100669.00;;;;5019964;28;20848;-73
2023/09/01 05:36:03;;;;;;;17.03;10.43;;;;;13.40;100674.00;;;;5020835;28;20276;-72
2023/09/01 05:38:49;;;;;;;16.00;10.90;;;;;13.50;100670.00;;;;5004608;28;20241;-71
2023/09/01 05:41:36;;;;;;;15.90;10.97;;;;;13.50;100674.00;;;;5018191;28;20234;-73
2023/09/01 05:44:22;;;;;;;19.87;10.47;;;;;13.50;100673.00;;;;5007795;28;20233;-72
2023/09/01 05:47:08;;;;;;;16.90;11.30;;;;;13.60;100680.00;;;;5015963;28;20225;-72
2023/09/01 05:49:55;;;;;;;16.83;10.30;;;;;13.70;100684.00;;;;5014053;28;20233;-73
2023/09/01 05:52:43;;;;;;;18.20;10.53;;;;;13.70;100687.00;;;;5018185;28;20225;-71
2023/09/01 05:55:30;;;;;;;16.40;10.60;;;;;13.70;100681.00;;;;5013506;28;20265;-72
2023/09/01 05:58:16;;;;;;;17.07;10.23;;;;;13.80;100678.00;;;;5013065;28;20301;-73
2023/09/01 06:01:03;;;;;;;19.43;10.40;;;;;13.90;100671.00;;;;5014416;28;20243;-74
2023/09/01 06:03:50;;;;;;;16.43;11.10;;;;;13.90;100684.00;;;;5020048;28;21038;-73
2023/09/01 06:06:37;;;;;;;18.13;10.93;;;;;14.00;100673.00;;;;5011665;28;20255;-73
2023/09/01 06:09:25;;;;;;;17.77;11.10;;;;;14.00;100673.00;;;;5009461;28;20273;-72
2023/09/01 06:12:11;;;;;;;15.63;11.03;;;;;14.00;100674.00;;;;5013563;28;20236;-73
2023/09/01 06:14:57;;;;;;;17.80;10.70;;;;;14.10;100676.00;;;;5014595;28;20863;-71
2023/09/01 06:17:43;;;;;;;14.53;10.23;;;;;14.20;100679.00;;;;5020174;28;20237;-72
2023/09/01 06:20:32;;;;;;;13.30;9.60;;;;;14.20;100688.00;;;;5015790;28;20360;-73
2023/09/01 06:23:18;;;;;;;16.47;9.70;;;;;14.20;100695.00;;;;5014529;28;20254;-72
2023/09/01 06:26:06;;;;;;;15.33;9.30;;;;;14.30;100683.00;;;;5018350;28;20229;-72
2023/09/01 06:28:52;;;;;;;14.50;9.90;;;;;14.30;100687.00;;;;5017590;28;20286;-72
2023/09/01 06:31:39;;;;;;;13.67;9.00;;;;;14.30;100672.00;;;;5018063;28;20254;-72
2023/09/01 06:34:25;;;;;;;16.57;9.90;;;;;14.30;100682.00;;;;5015384;28;20603;-73
2023/09/01 06:37:11;;;;;;;15.80;9.33;;;;;14.40;100689.00;;;;5014166;28;20243;-73
2023/09/01 06:39:58;;;;;;;14.73;9.03;;;;;14.50;100695.00;;;;5013586;28;20269;-73
2023/09/01 06:42:45;;;;;;;14.90;9.13;;;;;14.60;100697.00;;;;5019092;28;20245;-73
2023/09/01 06:45:32;;;;;;;12.37;9.27;;;;;14.70;100693.00;;;;5020414;28;20250;-73
2023/09/01 06:48:19;;;;;;;12.73;8.93;;;;;14.70;100693.00;;;;5011661;28;20235;-72
2023/09/01 06:51:05;;;;;;;15.63;9.50;;;;;14.80;100686.00;;;;5018990;28;20716;-73
2023/09/01 06:53:52;;;;;;;16.83;9.43;;;;;14.90;100690.00;;;;5017097;28;20271;-73
2023/09/01 06:56:38;;;;;;;13.37;9.40;;;;;14.90;100696.00;;;;5017328;28;20727;-73
2023/09/01 06:59:26;;;;;;;16.27;9.43;;;;;15.10;100690.00;;;;5019329;28;20286;-73
2023/09/01 07:02:12;;;;;;;15.97;9.13;;;;;15.10;100691.00;;;;5011018;28;20230;-73
2023/09/01 07:04:59;;;;;;;17.90;9.40;;;;;15.20;100682.00;;;;5020272;28;20239;-72
2023/09/01 07:07:45;;;;;;;14.03;9.17;;;;;15.30;100694.00;;;;5019725;28;20741;-71
2023/09/01 07:10:31;;;;;;;14.67;9.50;;;;;15.40;100686.00;;;;5017741;28;21003;-71
2023/09/01 07:13:18;;;;;;;15.50;8.90;;;;;15.40;100690.00;;;;5023195;28;20319;-72
2023/09/01 07:16:06;;;;;;;16.43;9.13;;;;;15.50;100689.00;;;;5017765;28;20227;-72
2023/09/01 07:18:52;;;;;;;14.40;8.83;;;;;15.40;100683.00;;;;5018862;28;20241;-73
2023/09/01 07:21:39;;;;;;;13.23;8.87;;;;;15.50;100688.00;;;;5018089;28;20230;-71
2023/09/01 07:24:25;;;;;;;13.90;8.17;;;;;15.40;100680.00;;;;5015762;28;20234;-71
2023/09/01 07:27:12;;;;;;;13.80;8.50;;;;;15.50;100688.00;;;;5017916;28;20336;-68
2023/09/01 07:29:58;;;;;;;15.07;8.57;;;;;15.60;100678.00;;;;5019107;28;20229;-71
2023/09/01 07:32:45;;;;;;;13.43;8.57;;;;;15.60;100678.00;;;;5017440;28;20380;-71
2023/09/01 07:35:32;;;;;;;11.03;8.37;;;;;15.70;100680.00;;;;5026528;28;20355;-71
2023/09/01 07:38:18;;;;;;;11.57;8.93;;;;;15.80;100676.00;;;;5016948;28;20232;-71
2023/09/01 07:41:05;;;;;;;13.87;8.73;;;;;15.90;100675.00;;;;5019595;28;20319;-71
2023/09/01 07:43:51;;;;;;;17.53;8.27;;;;;15.90;100681.00;;;;5014945;28;20248;-71
2023/09/01 07:46:38;;;;;;;12.93;8.53;;;;;16.00;100671.00;;;;5015843;28;20311;-72
2023/09/01 07:49:26;;;;;;;17.93;8.73;;;;;16.20;100676.00;;;;5023347;28;20241;-73
2023/09/01 07:52:12;;;;;;;12.17;8.50;;;;;16.30;100682.00;;;;5020054;28;20749;-74
2023/09/01 07:54:58;;;;;;;13.63;7.93;;;;;16.30;100684.00;;;;5018097;28;20230;-74
2023/09/01 07:57:44;;;;;;;13.47;8.40;;;;;16.20;100684.00;;;;5021022;28;20374;-75
2023/09/01 08:00:32;;;;;;;10.17;7.70;;;;;16.30;100692.00;;;;5020560;28;20226;-72
2023/09/01 08:03:18;;;;;;;14.67;8.43;;;;;16.40;100693.00;;;;5013479;28;20244;-72
2023/09/01 08:06:06;;;;;;;12.37;7.17;;;;;16.40;100692.00;;;;5020805;28;20620;-72
2023/09/01 08:08:52;;;;;;;10.67;7.33;;;;;16.40;100697.00;;;;5024081;28;20230;-73
2023/09/01 08:11:39;;;;;;;13.83;8.23;;;;;16.40;100690.00;;;;5015464;28;20711;-72
2023/09/01 08:14:25;;;;;;;16.87;7.40;;;;;16.40;100682.00;;;;5010921;28;20230;-75
2023/09/01 08:17:11;;;;;;;10.50;7.40;;;;;16.50;100681.00;;;;5016529;28;20233;-74
2023/09/01 08:19:58;;;;;;;14.30;8.50;;;;;16.50;100674.00;;;;5021329;28;20291;-74
2023/09/01 08:22:45;;;;;;;17.03;7.60;;;;;16.60;100680.00;;;;5022612;28;20371;-74
2023/09/01 08:25:32;;;;;;;10.00;7.13;;;;;16.70;100682.00;;;;5024676;28;20678;-75
2023/09/01 08:28:19;;;;;;;13.47;7.57;;;;;16.80;100689.00;;;;5017833;28;20253;-74
2023/09/01 08:31:06;;;;;;;11.67;7.40;;;;;16.90;100684.00;;;;5018660;28;20612;-74
2023/09/01 08:33:53;;;;;;;11.73;8.00;;;;;17.00;100686.00;;;;5020376;28;20247;-75
2023/09/01 08:36:40;;;;;;;9.60;7.33;;;;;17.00;100697.00;;;;5016849;28;20230;-72
2023/09/01 08:39:27;;;;;;;9.93;7.50;;;;;17.10;100698.00;;;;5008076;28;20632;-73
2023/09/01 08:42:16;;;;;;;11.13;7.13;;;;;17.20;100703.00;;;;5018884;28;20228;-72
2023/09/01 08:45:04;;;;;;;9.00;6.70;;;;;17.30;100710.00;;;;5020347;28;20241;-69
2023/09/01 08:47:50;;;;;;;12.80;6.83;;;;;17.30;100702.00;;;;5019837;28;20373;-72
2023/09/01 08:50:37;;;;;;;9.50;6.20;;;;;17.40;100708.00;;;;5022032;28;20234;-74
2023/09/01 08:53:25;;;;;;;8.07;6.47;;;;;17.40;100703.00;;;;5019673;28;20604;-75
2023/09/01 08:56:12;;;;;;;10.13;6.30;;;;;17.40;100701.00;;;;5018882;28;20257;-74
2023/09/01 08:58:59;;;;;;;9.23;6.43;;;;;17.50;100694.00;;;;5022886;28;20265;-73
2023/09/01 09:01:48;;;;;;;12.73;6.53;;;;;17.50;100691.00;;;;5025386;28;20301;-73
2023/09/01 09:04:35;;;;;;;13.33;6.80;;;;;17.70;100692.00;;;;5015474;28;20758;-73
2023/09/01 09:07:21;;;;;;;14.30;6.60;;;;;17.70;100694.00;;;;5018268;28;20333;-73
2023/09/01 09:10:09;;;;;;;10.23;6.00;;;;;17.70;100684.00;;;;5019697;28;20234;-75
2023/09/01 09:12:56;;;;;;;10.43;6.57;;;;;17.80;100696.00;;;;5018621;28;20233;-73
2023/09/01 09:15:43;;;;;;;10.97;5.73;;;;;17.90;100693.00;;;;5021822;28;20269;-76
2023/09/01 09:18:30;;;;;;;12.93;6.27;;;;;17.90;100699.00;;;;5013963;28;20237;-74
2023/09/01 09:21:27;;;;;;;9.87;5.90;;;;;17.80;100705.00;;;;5015998;28;20311;-75
2023/09/01 09:24:13;;;;;;;12.37;5.80;;;;;17.90;100709.00;;;;5017818;28;20315;-73
2023/09/01 09:27:15;;;;;;;10.13;5.57;;;;;17.90;100709.00;;;;5023012;28;20237;-72
2023/09/01 09:30:03;;;;;;;9.53;5.67;;;;;18.00;100712.00;;;;5019871;28;20225;-74
2023/09/01 09:33:02;;;;;;;7.30;5.53;;;;;17.90;100719.00;;;;5022566;28;20229;-74
2023/09/01 09:35:50;;;;;;;9.07;4.87;;;;;17.90;100724.00;;;;5022607;28;20292;-72
2023/09/01 09:38:40;;;;;;;9.20;5.53;;;;;17.80;100727.00;;;;5021953;28;20245;-71
2023/09/01 09:41:27;;;;;;;10.40;5.40;;;;;17.70;100729.00;;;;5015923;28;20237;-71
2023/09/01 09:44:22;;;;;;;8.97;5.60;;;;;17.70;100726.00;;;;5024665;28;20237;-72
2023/09/01 09:47:12;;;;;;;7.33;5.00;;;;;17.70;100729.00;;;;5018712;28;20229;-71
2023/09/01 09:50:01;;;;;;;7.67;5.50;;;;;17.60;100732.00;;;;5026819;28;20229;-73
2023/09/01 09:52:50;;;;;;;7.53;5.10;;;;;17.50;100734.00;;;;5010601;28;20246;-74
2023/09/01 09:55:44;;;;;;;7.87;4.83;;;;;17.50;100738.00;;;;5019499;28;20240;-73
2023/09/01 09:58:39;;;;;;;9.30;5.20;;;;;17.50;100736.00;;;;5022290;28;20376;-74
2023/09/01 10:01:27;;;;;;;7.53;5.00;;;;;17.40;100740.00;;;;5012399;28;20246;-76
2023/09/01 10:04:17;;;;;;;8.87;5.00;;;;;17.40;100741.00;;;;5017354;28;20341;-74
2023/09/01 10:07:04;;;;;;;8.37;5.20;;;;;17.30;100730.00;;;;5015506;28;20309;-75
2023/09/01 10:09:50;;;;;;;8.57;5.47;;;;;17.30;100737.00;;;;5016598;28;20233;-73
2023/09/01 10:12:37;;;;;;;8.80;5.03;;;;;17.30;100739.00;;;;5016266;28;20752;-72
2023/09/01 10:15:25;;;;;;;13.60;4.67;;;;;17.40;100736.00;;;;5021977;28;20663;-74
2023/09/01 10:18:11;;;;;;;10.30;5.70;;;;;17.40;100733.00;;;;5014087;28;20838;-75
2023/09/01 10:21:00;;;;;;;12.77;5.40;;;;;17.40;100734.00;;;;5018110;28;20750;-75
2023/09/01 10:23:46;;;;;;;9.13;5.30;;;;;17.30;100731.00;;;;5019725;28;20241;-72
2023/09/01 10:26:33;;;;;;;9.53;5.50;;;;;17.30;100735.00;;;;5010783;28;20357;-73
2023/09/01 10:29:31;;;;;;;12.53;6.30;;;;;17.40;100730.00;;;;5019841;28;20229;-73
2023/09/01 10:32:18;;;;;;;12.30;7.80;;;;;17.40;100738.00;;;;5019065;28;20360;-74
2023/09/01 10:35:06;;;;;;;12.67;8.13;;;;;17.30;100727.00;;;;5020121;28;20346;-74
2023/09/01 10:38:11;;;;;;;14.20;9.07;;;;;17.40;100737.00;;;;5008739;28;20238;-74
2023/09/01 10:40:58;;;;;;;15.07;9.70;;;;;17.40;100737.00;;;;5021505;28;20229;-72
2023/09/01 10:43:55;;;;;;;16.37;9.43;;;;;17.40;100728.00;;;;5020669;28;20229;-75
2023/09/01 10:46:41;;;;;;;18.63;9.63;;;;;17.40;100732.00;;;;5019710;28;20649;-74
2023/09/01 10:49:55;;;;;;;16.70;8.90;;;;;17.30;100737.00;;;;5031466;28;20245;-75
2023/09/01 10:52:44;;;;;;;15.03;8.77;;;;;17.40;100740.00;;;;5021429;28;20615;-74
2023/09/01 10:55:34;;;;;;;12.03;8.63;;;;;17.40;100733.00;;;;5021170;28;20234;-72
2023/09/01 10:58:21;;;;;;;16.77;9.17;;;;;17.50;100726.00;;;;5018636;28;20234;-74
2023/09/01 11:01:25;;;;;;;14.20;8.63;;;;;17.50;100730.00;;;;5027662;28;20356;-71
2023/09/01 11:04:30;;;;;;;16.87;8.83;;;;;17.60;100738.00;;;;5023975;28;20293;-73
2023/09/01 11:07:17;;;;;;;16.77;9.03;;;;;17.60;100728.00;;;;5018064;28;20364;-73
2023/09/01 11:10:05;;;;;;;13.17;9.13;;;;;17.60;100729.00;;;;5026597;28;20812;-72
2023/09/01 11:12:52;;;;;;;13.77;9.87;;;;;17.70;100729.00;;;;5018280;28;20864;-72
2023/09/01 11:15:43;;;;;;;19.87;9.30;;;;;17.70;100727.00;;;;5014668;28;20279;-74
2023/09/01 11:18:29;;;;;;;14.10;8.77;;;;;17.60;100731.00;;;;5021742;28;20246;-74
2023/09/01 11:21:16;;;;;;;13.07;9.57;;;;;17.60;100724.00;;;;5019725;28;20221;-72
2023/09/01 11:24:05;;;;;;;12.17;8.83;;;;;17.60;100730.00;;;;5025590;28;20806;-75
2023/09/01 11:26:53;;;;;;;19.57;9.70;;;;;17.70;100729.00;;;;5024621;28;20237;-73
2023/09/01 11:29:41;;;;;;;14.93;9.60;;;;;17.80;100722.00;;;;5016683;28;20238;-72
2023/09/01 11:32:28;;;;;;;15.00;9.23;;;;;17.80;100730.00;;;;5019663;28;20253;-72
2023/09/01 11:35:28;;;;;;;13.00;9.37;;;;;17.90;100729.00;;;;5019992;28;20260;-73
2023/09/01 11:38:19;;;;;;;14.53;9.47;;;;;17.90;100735.00;;;;5025692;28;20234;-73
2023/09/01 11:41:08;;;;;;;13.77;9.17;;;;;17.90;100737.00;;;;5021605;28;20234;-75
2023/09/01 11:43:55;;;;;;;12.03;9.10;;;;;17.90;100735.00;;;;5031720;28;20229;-73
2023/09/01 11:46:44;;;;;;;13.93;9.00;;;;;17.80;100737.00;;;;5029642;28;20244;-72
2023/09/01 11:49:30;;;;;;;14.33;9.63;;;;;17.80;100739.00;;;;5032636;28;20311;-74
2023/09/01 11:52:17;;;;;;;11.47;9.10;;;;;17.80;100741.00;;;;5020782;28;20783;-72
2023/09/01 11:55:04;;;;;;;13.23;9.93;;;;;17.80;100744.00;;;;5029046;28;20813;-71
2023/09/01 11:57:53;;;;;;;15.03;9.33;;;;;17.80;100747.00;;;;5024544;28;20371;-73
2023/09/01 12:00:40;;;;;;;15.37;9.27;;;;;17.70;100747.00;;;;5026581;28;20694;-73
2023/09/01 12:03:27;;;;;;;13.70;8.97;;;;;17.70;100753.00;;;;5017080;28;20233;-74
2023/09/01 12:06:18;;;;;;;13.00;9.57;;;;;17.80;100747.00;;;;5020336;28;20237;-73
2023/09/01 12:09:12;;;;;;;12.27;8.87;;;;;17.80;100748.00;;;;5024112;28;20323;-74
2023/09/01 12:12:02;;;;;;;15.07;9.13;;;;;17.90;100747.00;;;;5020215;28;20368;-73
2023/09/01 12:14:49;;;;;;;10.53;8.20;;;;;18.00;100736.00;;;;5015728;28;20300;-75
2023/09/01 12:17:35;;;;;;;10.20;7.63;;;;;18.10;100746.00;;;;5012564;28;20307;-74
2023/09/01 12:20:23;;;;;;;9.47;7.57;;;;;18.10;100736.00;;;;5015187;28;20416;-73
2023/09/01 12:23:10;;;;;;;9.73;7.10;;;;;18.20;100749.00;;;;5019656;28;20305;-74
2023/09/01 12:25:57;;;;;;;8.37;7.03;;;;;18.20;100739.00;;;;5027472;28;20805;-73
2023/09/01 12:28:44;;;;;;;7.67;6.37;;;;;18.20;100744.00;;;;5026263;28;20241;-73
2023/09/01 12:31:30;;;;;;;7.60;6.13;;;;;18.10;100743.00;;;;5021811;28;20237;-74
2023/09/01 12:34:17;;;;;;;8.40;5.73;;;;;18.20;100753.00;;;;5024192;28;20318;-76
2023/09/01 12:37:06;;;;;;;9.57;6.33;;;;;18.30;100754.00;;;;5024322;28;20854;-75
2023/09/01 12:39:52;;;;;;;7.03;5.73;;;;;18.20;100754.00;;;;5026287;28;20233;-75
2023/09/01 12:42:38;;;;;;;9.50;5.87;;;;;18.10;100753.00;;;;5019734;28;20837;-74
2023/09/01 12:45:24;;;;;;;7.67;5.23;;;;;18.10;100751.00;;;;5018798;28;20315;-74
2023/09/01 12:48:13;;;;;;;8.17;5.73;;;;;18.10;100754.00;;;;5016848;28;20305;-76
2023/09/01 12:50:59;;;;;;;6.50;5.13;;;;;18.10;100757.00;;;;5011557;28;20230;-75
2023/09/01 12:53:46;;;;;;;6.17;5.43;;;;;18.10;100751.00;;;;5023613;28;20253;-75
2023/09/01 12:56:33;;;;;;;6.87;5.53;;;;;18.10;100753.00;;;;5019712;28;20927;-73
2023/09/01 12:59:19;;;;;;;8.53;5.57;;;;;18.10;100750.00;;;;5026038;28;20368;-74
2023/09/01 13:02:06;;;;;;;7.67;5.70;;;;;18.10;100743.00;;;;5019389;28;20365;-74
2023/09/01 13:04:55;;;;;;;8.23;6.27;;;;;18.20;100748.00;;;;5023240;28;20230;-75
2023/09/01 13:07:42;;;;;;;7.77;6.20;;;;;18.20;100747.00;;;;5019042;28;20373;-74
2023/09/01 13:10:29;;;;;;;9.63;7.03;;;;;18.20;100753.00;;;;5017963;28;20233;-74
2023/09/01 13:13:16;;;;;;;9.60;7.23;;;;;18.20;100760.00;;;;5025568;28;20217;-75
2023/09/01 13:16:03;;;;;;;8.43;6.80;;;;;18.20;100763.00;;;;5019308;28;20628;-74
2023/09/01 13:18:49;;;;;;;11.47;8.03;;;;;18.30;100756.00;;;;5022085;28;20749;-74
2023/09/01 13:21:35;;;;;;;9.40;7.70;;;;;18.30;100754.00;;;;5018244;28;20299;-75
2023/09/01 13:24:22;;;;;;;10.37;7.80;;;;;18.40;100756.00;;;;5015843;28;20221;-74
2023/09/01 13:27:09;;;;;;;10.27;7.97;;;;;18.40;100755.00;;;;5016131;28;20245;-74
2023/09/01 13:29:55;;;;;;;9.83;7.90;;;;;18.40;100752.00;;;;5013666;28;20229;-75
2023/09/01 13:32:42;;;;;;;11.30;7.13;;;;;18.50;100762.00;;;;5023219;28;20226;-74
2023/09/01 13:35:28;;;;;;;9.70;7.83;;;;;18.60;100771.00;;;;5010809;28;20229;-77
2023/09/01 13:38:16;;;;;;;9.80;7.40;;;;;18.60;100770.00;;;;5022803;28;20237;-73
2023/09/01 13:41:03;;;;;;;10.43;7.13;;;;;18.60;100777.00;;;;5017142;28;20237;-74